sensor_id;sensor_type;location;lat;lon;timestamp;pressure;altitude;pressure_sealevel;temperature;humidity
47556;BME280;33291;46.222;26.460;2023-04-08T00:00:36;96728.25;;;0.92;100.00
47556;BME280;33291;46.222;26.460;2023-04-08T00:03:02;96733.41;;;0.92;100.00
47556;BME280;33291;46.222;26.460;2023-04-08T00:05:28;96726.44;;;0.94;100.00
47556;BME280;33291;46.222;26.460;2023-04-08T00:07:53;96718.31;;;0.85;100.00
47556;BME280;33291;46.222;26.460;2023-04-08T00:10:19;96719.53;;;0.96;100.00
47556;BME280;33291;46.222;26.460;2023-04-08T00:12:46;96726.31;;;0.97;100.00
47556;BME280;33291;46.222;26.460;2023-04-08T00:15:12;96721.16;;;0.97;100.00
47556;BME280;33291;46.222;26.460;2023-04-08T00:17:37;96728.94;;;0.95;100.00
47556;BME280;33291;46.222;26.460;2023-04-08T00:20:03;96721.25;;;0.95;100.00
47556;BME280;33291;46.222;26.460;2023-04-08T00:22:29;96716.34;;;0.91;100.00
47556;BME280;33291;46.222;26.460;2023-04-08T07:42:04;96852.56;;;3.39;87.25
47556;BME280;33291;46.222;26.460;2023-04-08T07:44:29;96853.47;;;3.54;86.75
47556;BME280;33291;46.222;26.460;2023-04-08T07:46:55;96844.81;;;3.55;86.54
47556;BME280;33291;46.222;26.460;2023-04-08T07:49:20;96844.09;;;3.67;86.40
47556;BME280;33291;46.222;26.460;2023-04-08T07:51:45;96847.72;;;3.79;85.37
47556;BME280;33291;46.222;26.460;2023-04-08T07:54:11;96849.84;;;3.87;85.05
47556;BME280;33291;46.222;26.460;2023-04-08T07:56:41;96843.25;;;3.97;84.03
47556;BME280;33291;46.222;26.460;2023-04-08T07:59:11;96854.69;;;4.07;84.15
47556;BME280;33291;46.222;26.460;2023-04-08T08:01:37;96849.81;;;4.17;83.35
47556;BME280;33291;46.222;26.460;2023-04-08T08:04:02;96852.69;;;4.27;82.52
47556;BME280;33291;46.222;26.460;2023-04-08T08:06:28;96858.22;;;4.35;81.84
47556;BME280;33291;46.222;26.460;2023-04-08T08:08:56;96847.81;;;4.37;81.02
47556;BME280;33291;46.222;26.460;2023-04-08T08:11:21;96849.94;;;4.44;80.72
47556;BME280;33291;46.222;26.460;2023-04-08T08:13:47;96838.16;;;4.40;80.60
47556;BME280;33291;46.222;26.460;2023-04-08T08:16:13;96854.09;;;4.47;80.26
47556;BME280;33291;46.222;26.460;2023-04-08T08:18:39;96844.75;;;4.44;80.24
47556;BME280;33291;46.222;26.460;2023-04-08T08:21:05;96842.94;;;4.47;80.37
47556;BME280;33291;46.222;26.460;2023-04-08T08:23:31;96844.22;;;4.54;79.45
47556;BME280;33291;46.222;26.460;2023-04-08T08:26:02;96847.16;;;4.62;79.15
47556;BME280;33291;46.222;26.460;2023-04-08T08:28:27;96847.63;;;4.69;77.24
47556;BME280;33291;46.222;26.460;2023-04-08T08:30:53;96844.22;;;4.68;77.69
47556;BME280;33291;46.222;26.460;2023-04-08T08:33:18;96848.09;;;4.75;77.05
47556;BME280;33291;46.222;26.460;2023-04-08T08:35:44;96855.63;;;4.78;76.61
47556;BME280;33291;46.222;26.460;2023-04-08T08:38:10;96835.91;;;4.77;76.46
47556;BME280;33291;46.222;26.460;2023-04-08T08:40:38;96839.88;;;4.83;75.83
47556;BME280;33291;46.222;26.460;2023-04-08T08:43:03;96847.66;;;4.96;74.90
47556;BME280;33291;46.222;26.460;2023-04-08T08:45:29;96845.19;;;4.94;74.65
47556;BME280;33291;46.222;26.460;2023-04-08T08:47:55;96856.69;;;5.03;73.65
47556;BME280;33291;46.222;26.460;2023-04-08T08:50:21;96852.44;;;5.02;74.02
47556;BME280;33291;46.222;26.460;2023-04-08T08:52:51;96862.78;;;5.02;74.15
47556;BME280;33291;46.222;26.460;2023-04-08T08:55:20;96863.72;;;5.01;73.59
47556;BME280;33291;46.222;26.460;2023-04-08T08:57:48;96863.72;;;5.01;74.17
47556;BME280;33291;46.222;26.460;2023-04-08T09:00:15;96853.59;;;4.98;73.82
47556;BME280;33291;46.222;26.460;2023-04-08T09:02:41;96860.84;;;5.06;74.00
47556;BME280;33291;46.222;26.460;2023-04-08T09:05:06;96867.56;;;5.08;73.29
47556;BME280;33291;46.222;26.460;2023-04-08T09:07:36;96862.38;;;5.08;73.48
47556;BME280;33291;46.222;26.460;2023-04-08T09:10:04;96868.31;;;5.10;72.02
47556;BME280;33291;46.222;26.460;2023-04-08T09:12:30;96857.97;;;5.10;71.70
47556;BME280;33291;46.222;26.460;2023-04-08T09:15:07;96864.50;;;5.16;71.23
47556;BME280;33291;46.222;26.460;2023-04-08T09:17:34;96874.53;;;5.21;71.53
47556;BME280;33291;46.222;26.460;2023-04-08T09:22:34;96865.78;;;5.23;71.03
47556;BME280;33291;46.222;26.460;2023-04-08T09:24:59;96868.75;;;5.17;70.15
47556;BME280;33291;46.222;26.460;2023-04-08T09:27:34;96879.41;;;5.25;70.55
47556;BME280;33291;46.222;26.460;2023-04-08T09:30:15;96880.06;;;5.29;70.41
47556;BME280;33291;46.222;26.460;2023-04-08T09:32:49;96879.25;;;5.28;70.79
47556;BME280;33291;46.222;26.460;2023-04-08T09:35:16;96878.41;;;5.28;70.81
47556;BME280;33291;46.222;26.460;2023-04-08T09:37:42;96876.75;;;5.27;70.91
47556;BME280;33291;46.222;26.460;2023-04-08T09:40:07;96875.63;;;5.31;71.20
47556;BME280;33291;46.222;26.460;2023-04-08T09:42:35;96880.59;;;5.34;71.28
47556;BME280;33291;46.222;26.460;2023-04-08T09:45:05;96866.22;;;5.30;71.35
47556;BME280;33291;46.222;26.460;2023-04-08T09:50:25;96869.00;;;5.27;72.24
47556;BME280;33291;46.222;26.460;2023-04-08T09:52:56;96892.78;;;5.32;72.62
47556;BME280;33291;46.222;26.460;2023-04-08T09:55:25;96876.66;;;5.28;72.84
47556;BME280;33291;46.222;26.460;2023-04-08T09:57:58;96893.31;;;5.37;72.92
47556;BME280;33291;46.222;26.460;2023-04-08T10:00:31;96887.31;;;5.37;71.93
47556;BME280;33291;46.222;26.460;2023-04-08T10:05:36;96891.38;;;5.41;72.14
47556;BME280;33291;46.222;26.460;2023-04-08T10:08:04;96894.38;;;5.47;72.40
47556;BME280;33291;46.222;26.460;2023-04-08T10:10:30;96891.50;;;5.52;72.33
47556;BME280;33291;46.222;26.460;2023-04-08T10:12:57;96894.72;;;5.56;72.17
47556;BME280;33291;46.222;26.460;2023-04-08T10:15:40;96898.47;;;5.64;72.59
47556;BME280;33291;46.222;26.460;2023-04-08T10:23:17;96879.59;;;5.77;69.81
47556;BME280;33291;46.222;26.460;2023-04-08T10:25:47;96884.06;;;5.87;69.46
47556;BME280;33291;46.222;26.460;2023-04-08T10:30:49;96888.59;;;5.98;68.75
47556;BME280;33291;46.222;26.460;2023-04-08T10:33:23;96888.78;;;6.08;68.35
47556;BME280;33291;46.222;26.460;2023-04-08T10:38:36;96880.00;;;6.11;67.17
47556;BME280;33291;46.222;26.460;2023-04-08T10:41:01;96892.44;;;6.18;67.07
47556;BME280;33291;46.222;26.460;2023-04-08T10:43:31;96894.81;;;6.21;66.95
47556;BME280;33291;46.222;26.460;2023-04-08T10:45:57;96887.97;;;6.20;66.67
47556;BME280;33291;46.222;26.460;2023-04-08T10:48:24;96858.88;;;6.04;66.54
47556;BME280;33291;46.222;26.460;2023-04-08T10:50:59;96890.25;;;6.25;66.99
47556;BME280;33291;46.222;26.460;2023-04-08T10:53:32;96892.63;;;6.28;67.19
47556;BME280;33291;46.222;26.460;2023-04-08T10:58:31;96893.28;;;6.32;66.56
47556;BME280;33291;46.222;26.460;2023-04-08T11:01:02;96888.72;;;6.35;66.20
47556;BME280;33291;46.222;26.460;2023-04-08T11:03:31;96898.25;;;6.35;65.82
47556;BME280;33291;46.222;26.460;2023-04-08T11:05:58;96895.56;;;6.36;65.66
47556;BME280;33291;46.222;26.460;2023-04-08T11:08:31;96898.16;;;6.36;65.12
47556;BME280;33291;46.222;26.460;2023-04-08T11:10:58;96900.09;;;6.33;65.48
47556;BME280;33291;46.222;26.460;2023-04-08T11:13:26;96897.41;;;6.34;65.76
47556;BME280;33291;46.222;26.460;2023-04-08T11:15:54;96889.63;;;6.34;65.93
47556;BME280;33291;46.222;26.460;2023-04-08T11:18:21;96900.53;;;6.39;66.22
47556;BME280;33291;46.222;26.460;2023-04-08T11:20:49;96901.56;;;6.37;65.54
47556;BME280;33291;46.222;26.460;2023-04-08T11:23:16;96903.00;;;6.41;65.94
47556;BME280;33291;46.222;26.460;2023-04-08T11:25:42;96905.59;;;6.41;65.85
47556;BME280;33291;46.222;26.460;2023-04-08T11:28:10;96901.34;;;6.40;66.01
47556;BME280;33291;46.222;26.460;2023-04-08T11:30:38;96898.03;;;6.38;65.50
47556;BME280;33291;46.222;26.460;2023-04-08T11:33:04;96895.47;;;6.38;65.65
47556;BME280;33291;46.222;26.460;2023-04-08T11:35:30;96896.38;;;6.37;65.43
47556;BME280;33291;46.222;26.460;2023-04-08T11:37:56;96895.56;;;6.36;65.80
47556;BME280;33291;46.222;26.460;2023-04-08T11:40:22;96887.91;;;6.35;65.91
47556;BME280;33291;46.222;26.460;2023-04-08T11:42:49;96899.88;;;6.36;66.27
47556;BME280;33291;46.222;26.460;2023-04-08T11:45:17;96895.56;;;6.36;67.03
47556;BME280;33291;46.222;26.460;2023-04-08T11:47:44;96892.22;;;6.34;67.54
47556;BME280;33291;46.222;26.460;2023-04-08T11:50:11;96893.28;;;6.32;68.25
47556;BME280;33291;46.222;26.460;2023-04-08T11:52:44;96892.34;;;6.33;68.38
47556;BME280;33291;46.222;26.460;2023-04-08T11:55:10;96891.63;;;6.31;68.07
47556;BME280;33291;46.222;26.460;2023-04-08T11:57:37;96895.97;;;6.30;68.54
47556;BME280;33291;46.222;26.460;2023-04-08T12:00:05;96888.72;;;6.22;70.32
47556;BME280;33291;46.222;26.460;2023-04-08T12:02:30;96894.19;;;6.18;72.14
47556;BME280;33291;46.222;26.460;2023-04-08T12:04:56;96896.03;;;6.16;73.29
47556;BME280;33291;46.222;26.460;2023-04-08T12:07:21;96897.06;;;6.13;73.48
47556;BME280;33291;46.222;26.460;2023-04-08T12:09:47;96886.22;;;6.08;74.59
47556;BME280;33291;46.222;26.460;2023-04-08T12:12:12;96884.03;;;6.02;74.64
47556;BME280;33291;46.222;26.460;2023-04-08T12:14:38;96856.88;;;5.82;74.93
47556;BME280;33291;46.222;26.460;2023-04-08T12:17:03;96896.50;;;5.95;75.25
47556;BME280;33291;46.222;26.460;2023-04-08T12:19:29;96871.63;;;5.80;76.00
47556;BME280;33291;46.222;26.460;2023-04-08T12:21:54;96895.16;;;5.90;77.07
47556;BME280;33291;46.222;26.460;2023-04-08T12:24:19;96864.38;;;5.72;77.17
47556;BME280;33291;46.222;26.460;2023-04-08T12:26:45;96879.28;;;5.81;78.45
47556;BME280;33291;46.222;26.460;2023-04-08T12:29:11;96894.59;;;5.84;78.65
47556;BME280;33291;46.222;26.460;2023-04-08T12:31:36;96892.41;;;5.78;79.46
47556;BME280;33291;46.222;26.460;2023-04-08T12:34:02;96868.72;;;5.59;79.98
47556;BME280;33291;46.222;26.460;2023-04-08T12:36:27;96887.13;;;5.67;80.69
47556;BME280;33291;46.222;26.460;2023-04-08T12:38:53;96886.41;;;5.65;80.80
47556;BME280;33291;46.222;26.460;2023-04-08T12:41:18;96892.91;;;5.70;80.35
47556;BME280;33291;46.222;26.460;2023-04-08T12:43:44;96888.25;;;5.63;81.17
47556;BME280;33291;46.222;26.460;2023-04-08T12:46:09;96876.47;;;5.59;81.30
47556;BME280;33291;46.222;26.460;2023-04-08T12:48:35;96890.72;;;5.64;81.46
47556;BME280;33291;46.222;26.460;2023-04-08T12:51:00;96896.84;;;5.63;81.57
47556;BME280;33291;46.222;26.460;2023-04-08T12:53:26;96889.28;;;5.60;81.33
47556;BME280;33291;46.222;26.460;2023-04-08T12:55:51;96889.38;;;5.59;81.89
47556;BME280;33291;46.222;26.460;2023-04-08T12:58:21;96892.88;;;5.58;82.06
47556;BME280;33291;46.222;26.460;2023-04-08T13:00:47;96876.09;;;5.50;82.10
47556;BME280;33291;46.222;26.460;2023-04-08T13:03:13;96882.09;;;5.51;82.36
47556;BME280;33291;46.222;26.460;2023-04-08T13:05:41;96883.66;;;5.54;82.33
47556;BME280;33291;46.222;26.460;2023-04-08T13:08:06;96874.63;;;5.46;82.96
47556;BME280;33291;46.222;26.460;2023-04-08T13:10:32;96894.28;;;5.49;82.08
47556;BME280;33291;46.222;26.460;2023-04-08T13:12:57;96880.84;;;5.44;82.24
47556;BME280;33291;46.222;26.460;2023-04-08T13:15:23;96883.25;;;5.47;82.29
47556;BME280;33291;46.222;26.460;2023-04-08T13:17:48;96886.84;;;5.44;82.77
47556;BME280;33291;46.222;26.460;2023-04-08T13:20:14;96888.41;;;5.47;83.29
47556;BME280;33291;46.222;26.460;2023-04-08T13:22:40;96896.78;;;5.50;83.06
47556;BME280;33291;46.222;26.460;2023-04-08T13:25:05;96891.00;;;5.47;82.96
47556;BME280;33291;46.222;26.460;2023-04-08T13:27:31;96877.63;;;5.40;82.87
47556;BME280;33291;46.222;26.460;2023-04-08T13:29:57;96893.13;;;5.40;82.82
47556;BME280;33291;46.222;26.460;2023-04-08T13:32:22;96889.09;;;5.36;83.06
47556;BME280;33291;46.222;26.460;2023-04-08T13:34:48;96883.16;;;5.34;82.91
47556;BME280;33291;46.222;26.460;2023-04-08T13:37:13;96883.47;;;5.29;83.12
47556;BME280;33291;46.222;26.460;2023-04-08T13:39:39;96876.00;;;5.25;83.22
47556;BME280;33291;46.222;26.460;2023-04-08T13:42:05;96880.34;;;5.24;83.31
47556;BME280;33291;46.222;26.460;2023-04-08T13:44:30;96853.63;;;5.11;83.72
47556;BME280;33291;46.222;26.460;2023-04-08T13:46:57;96878.69;;;5.23;83.90
47556;BME280;33291;46.222;26.460;2023-04-08T13:49:23;96874.00;;;5.15;83.55
47556;BME280;33291;46.222;26.460;2023-04-08T13:51:48;96860.66;;;5.09;83.46
47556;BME280;33291;46.222;26.460;2023-04-08T13:54:13;96872.91;;;5.20;83.82
47556;BME280;33291;46.222;26.460;2023-04-08T13:56:39;96878.41;;;5.28;83.70
47556;BME280;33291;46.222;26.460;2023-04-08T13:59:05;96876.47;;;5.31;84.60
47556;BME280;33291;46.222;26.460;2023-04-08T14:01:31;96879.78;;;5.33;84.70
47556;BME280;33291;46.222;26.460;2023-04-08T14:03:57;96874.22;;;5.40;84.49
47556;BME280;33291;46.222;26.460;2023-04-08T14:06:22;96879.19;;;5.43;84.95
47556;BME280;33291;46.222;26.460;2023-04-08T14:08:48;96868.03;;;5.42;85.48
47556;BME280;33291;46.222;26.460;2023-04-08T14:11:13;96874.44;;;5.49;85.59
47556;BME280;33291;46.222;26.460;2023-04-08T14:13:39;96838.63;;;5.30;85.47
47556;BME280;33291;46.222;26.460;2023-04-08T14:16:05;96876.63;;;5.56;85.03
47556;BME280;33291;46.222;26.460;2023-04-08T14:18:30;96860.59;;;5.50;85.14
47556;BME280;33291;46.222;26.460;2023-04-08T14:20:56;96870.16;;;5.63;85.17
47556;BME280;33291;46.222;26.460;2023-04-08T14:23:21;96873.47;;;5.65;85.59
47556;BME280;33291;46.222;26.460;2023-04-08T14:25:47;96868.22;;;5.66;85.56
47556;BME280;33291;46.222;26.460;2023-04-08T14:28:12;96869.13;;;5.65;85.00
47556;BME280;33291;46.222;26.460;2023-04-08T14:30:38;96864.78;;;5.66;85.33
47556;BME280;33291;46.222;26.460;2023-04-08T14:33:03;96867.06;;;5.70;85.56
47556;BME280;33291;46.222;26.460;2023-04-08T14:35:29;96862.94;;;5.68;85.13
47556;BME280;33291;46.222;26.460;2023-04-08T14:37:55;96873.09;;;5.71;85.73
47556;BME280;33291;46.222;26.460;2023-04-08T14:40:21;96866.44;;;5.67;85.22
47556;BME280;33291;46.222;26.460;2023-04-08T14:42:46;96863.16;;;5.65;85.38
47556;BME280;33291;46.222;26.460;2023-04-08T14:45:14;96867.03;;;5.58;84.68
47556;BME280;33291;46.222;26.460;2023-04-08T14:47:40;96875.09;;;5.53;84.83
47556;BME280;33291;46.222;26.460;2023-04-08T14:50:06;96876.09;;;5.50;84.93
47556;BME280;33291;46.222;26.460;2023-04-08T14:52:32;96870.50;;;5.44;84.87
47556;BME280;33291;46.222;26.460;2023-04-08T14:54:57;96875.13;;;5.39;84.85
47556;BME280;33291;46.222;26.460;2023-04-08T14:57:22;96873.59;;;5.36;84.69
47556;BME280;33291;46.222;26.460;2023-04-08T14:59:48;96870.66;;;5.28;85.09
47556;BME280;33291;46.222;26.460;2023-04-08T15:02:14;96873.03;;;5.31;85.27
47556;BME280;33291;46.222;26.460;2023-04-08T15:04:39;96874.78;;;5.30;85.28
47556;BME280;33291;46.222;26.460;2023-04-08T15:07:05;96874.25;;;5.25;85.06
47556;BME280;33291;46.222;26.460;2023-04-08T15:09:31;96883.66;;;5.26;84.96
47556;BME280;33291;46.222;26.460;2023-04-08T15:11:57;96873.63;;;5.22;84.90
47556;BME280;33291;46.222;26.460;2023-04-08T15:14:22;96878.88;;;5.20;84.78
47556;BME280;33291;46.222;26.460;2023-04-08T15:16:48;96872.34;;;5.14;85.01
47556;BME280;33291;46.222;26.460;2023-04-08T15:19:13;96846.00;;;4.95;85.05
47556;BME280;33291;46.222;26.460;2023-04-08T15:21:39;96882.03;;;5.11;85.07
47556;BME280;33291;46.222;26.460;2023-04-08T15:24:04;96872.19;;;5.03;85.59
47556;BME280;33291;46.222;26.460;2023-04-08T15:26:30;96849.91;;;4.88;85.82
47556;BME280;33291;46.222;26.460;2023-04-08T15:28:55;96861.88;;;4.89;85.31
47556;BME280;33291;46.222;26.460;2023-04-08T15:31:23;96883.81;;;4.96;85.62
47556;BME280;33291;46.222;26.460;2023-04-08T15:33:49;96882.53;;;4.89;85.97
47556;BME280;33291;46.222;26.460;2023-04-08T15:36:14;96884.00;;;4.93;86.43
47556;BME280;33291;46.222;26.460;2023-04-08T15:38:47;96875.72;;;4.88;86.60
47556;BME280;33291;46.222;26.460;2023-04-08T15:41:18;96888.44;;;4.91;86.92
47556;BME280;33291;46.222;26.460;2023-04-08T15:43:45;96886.03;;;4.88;87.02
47556;BME280;33291;46.222;26.460;2023-04-08T15:46:16;96897.09;;;4.90;87.08
47556;BME280;33291;46.222;26.460;2023-04-08T15:48:41;96894.78;;;4.85;86.77
47556;BME280;33291;46.222;26.460;2023-04-08T15:51:07;96896.66;;;4.83;86.37
47556;BME280;33291;46.222;26.460;2023-04-08T15:53:33;96891.19;;;4.73;86.93
47556;BME280;33291;46.222;26.460;2023-04-08T15:55:59;96899.03;;;4.72;87.28
47556;BME280;33291;46.222;26.460;2023-04-08T15:58:24;96896.75;;;4.67;87.41
47556;BME280;33291;46.222;26.460;2023-04-08T16:00:50;96895.25;;;4.63;87.02
47556;BME280;33291;46.222;26.460;2023-04-08T16:03:16;96899.88;;;4.58;87.19
47556;BME280;33291;46.222;26.460;2023-04-08T16:05:42;96903.38;;;4.57;87.71
47556;BME280;33291;46.222;26.460;2023-04-08T16:08:08;96907.59;;;4.58;87.92
47556;BME280;33291;46.222;26.460;2023-04-08T16:10:33;96895.25;;;4.49;87.96
47556;BME280;33291;46.222;26.460;2023-04-08T16:12:59;96890.47;;;4.42;87.79
47556;BME280;33291;46.222;26.460;2023-04-08T16:15:25;96904.94;;;4.45;87.88
47556;BME280;33291;46.222;26.460;2023-04-08T16:17:51;96906.03;;;4.41;88.15
47556;BME280;33291;46.222;26.460;2023-04-08T16:20:17;96908.72;;;4.39;88.57
47556;BME280;33291;46.222;26.460;2023-04-08T16:22:43;96918.22;;;4.39;88.27
47556;BME280;33291;46.222;26.460;2023-04-08T16:25:08;96918.47;;;4.34;87.62
47556;BME280;33291;46.222;26.460;2023-04-08T16:27:34;96909.63;;;4.24;88.25
47556;BME280;33291;46.222;26.460;2023-04-08T16:30:01;96917.53;;;4.21;88.86
47556;BME280;33291;46.222;26.460;2023-04-08T16:32:27;96916.13;;;4.15;89.35
47556;BME280;33291;46.222;26.460;2023-04-08T16:34:52;96911.88;;;4.14;89.45
47556;BME280;33291;46.222;26.460;2023-04-08T16:37:18;96910.97;;;4.15;89.33
47556;BME280;33291;46.222;26.460;2023-04-08T16:39:43;96917.88;;;4.15;89.13
47556;BME280;33291;46.222;26.460;2023-04-08T16:42:09;96917.31;;;4.09;88.65
47556;BME280;33291;46.222;26.460;2023-04-08T16:44:34;96909.53;;;3.95;89.16
47556;BME280;33291;46.222;26.460;2023-04-08T16:47:00;96923.00;;;4.00;89.04
47556;BME280;33291;46.222;26.460;2023-04-08T16:49:25;96918.00;;;3.97;89.51
47556;BME280;33291;46.222;26.460;2023-04-08T16:51:51;96914.28;;;3.87;89.44
47556;BME280;33291;46.222;26.460;2023-04-08T16:54:16;96926.25;;;3.88;89.62
47556;BME280;33291;46.222;26.460;2023-04-08T16:56:42;96928.84;;;3.88;90.41
47556;BME280;33291;46.222;26.460;2023-04-08T16:59:10;96942.81;;;3.84;90.80
47556;BME280;33291;46.222;26.460;2023-04-08T17:01:36;96927.78;;;3.76;91.11
47556;BME280;33291;46.222;26.460;2023-04-08T17:04:01;96933.69;;;3.78;90.82
47556;BME280;33291;46.222;26.460;2023-04-08T17:06:27;96947.16;;;3.83;90.64
47556;BME280;33291;46.222;26.460;2023-04-08T17:08:53;96939.66;;;3.79;90.73
47556;BME280;33291;46.222;26.460;2023-04-08T17:11:18;96939.66;;;3.79;90.78
47556;BME280;33291;46.222;26.460;2023-04-08T17:13:45;96949.34;;;3.75;90.46
47556;BME280;33291;46.222;26.460;2023-04-08T17:16:13;96957.16;;;3.73;90.96
47556;BME280;33291;46.222;26.460;2023-04-08T17:18:39;96953.31;;;3.65;91.02
47556;BME280;33291;46.222;26.460;2023-04-08T17:21:04;96959.63;;;3.59;91.26
47556;BME280;33291;46.222;26.460;2023-04-08T17:23:30;96950.06;;;3.61;91.50
47556;BME280;33291;46.222;26.460;2023-04-08T17:25:55;96951.00;;;3.60;91.20
47556;BME280;33291;46.222;26.460;2023-04-08T17:28:21;96952.09;;;3.56;91.19
47556;BME280;33291;46.222;26.460;2023-04-08T17:30:47;96963.13;;;3.58;91.26
47556;BME280;33291;46.222;26.460;2023-04-08T17:33:13;96956.50;;;3.54;91.42
47556;BME280;33291;46.222;26.460;2023-04-08T17:35:39;96963.19;;;3.56;91.41
47556;BME280;33291;46.222;26.460;2023-04-08T17:38:04;96971.94;;;3.54;91.44
47556;BME280;33291;46.222;26.460;2023-04-08T17:40:30;96971.53;;;3.46;91.74
47556;BME280;33291;46.222;26.460;2023-04-08T17:42:56;96968.94;;;3.46;91.64
47556;BME280;33291;46.222;26.460;2023-04-08T17:45:25;96971.34;;;3.49;92.42
47556;BME280;33291;46.222;26.460;2023-04-08T17:47:50;96967.22;;;3.46;92.31
47556;BME280;33291;46.222;26.460;2023-04-08T17:50:16;96979.25;;;3.46;92.55
47556;BME280;33291;46.222;26.460;2023-04-08T17:52:42;96974.25;;;3.43;92.46
47556;BME280;33291;46.222;26.460;2023-04-08T17:55:14;96984.72;;;3.40;92.68
47556;BME280;33291;46.222;26.460;2023-04-08T17:57:40;96990.56;;;3.43;92.21
47556;BME280;33291;46.222;26.460;2023-04-08T18:00:06;96995.56;;;3.46;92.56
47556;BME280;33291;46.222;26.460;2023-04-08T18:02:32;96991.56;;;3.41;92.67
47556;BME280;33291;46.222;26.460;2023-04-08T18:04:58;96999.19;;;3.42;92.06
47556;BME280;33291;46.222;26.460;2023-04-08T18:07:25;97002.03;;;3.37;93.00
47556;BME280;33291;46.222;26.460;2023-04-08T18:09:51;96999.00;;;3.29;92.71
47556;BME280;33291;46.222;26.460;2023-04-08T18:12:17;97015.31;;;3.30;93.08
47556;BME280;33291;46.222;26.460;2023-04-08T18:14:43;97014.63;;;3.26;93.32
47556;BME280;33291;46.222;26.460;2023-04-08T18:17:09;97010.47;;;3.24;93.45
47556;BME280;33291;46.222;26.460;2023-04-08T18:19:34;97012.44;;;3.18;93.32
47556;BME280;33291;46.222;26.460;2023-04-08T18:22:00;97008.97;;;3.19;93.91
47556;BME280;33291;46.222;26.460;2023-04-08T18:24:25;97009.78;;;3.20;93.30
47556;BME280;33291;46.222;26.460;2023-04-08T18:26:51;97012.38;;;3.20;93.30
47556;BME280;33291;46.222;26.460;2023-04-08T18:29:16;97013.13;;;3.22;93.44
47556;BME280;33291;46.222;26.460;2023-04-08T18:31:43;97016.69;;;3.19;94.19
47556;BME280;33291;46.222;26.460;2023-04-08T18:34:08;97021.75;;;3.21;94.07
47556;BME280;33291;46.222;26.460;2023-04-08T18:36:34;97031.00;;;3.25;93.87
47556;BME280;33291;46.222;26.460;2023-04-08T18:39:00;97024.91;;;3.26;93.84
47556;BME280;33291;46.222;26.460;2023-04-08T18:41:26;97024.75;;;3.29;93.86
47556;BME280;33291;46.222;26.460;2023-04-08T18:43:52;97022.94;;;3.31;94.07
47556;BME280;33291;46.222;26.460;2023-04-08T18:46:18;97025.44;;;3.33;94.08
47556;BME280;33291;46.222;26.460;2023-04-08T18:48:44;97026.25;;;3.33;93.89
47556;BME280;33291;46.222;26.460;2023-04-08T18:51:10;97017.97;;;3.28;93.81
47556;BME280;33291;46.222;26.460;2023-04-08T18:53:37;97030.66;;;3.31;93.55
47556;BME280;33291;46.222;26.460;2023-04-08T18:56:03;97032.31;;;3.32;93.40
47556;BME280;33291;46.222;26.460;2023-04-08T18:58:29;97029.16;;;3.27;93.55
47556;BME280;33291;46.222;26.460;2023-04-08T19:00:56;97033.72;;;3.22;93.69
47556;BME280;33291;46.222;26.460;2023-04-08T19:03:22;97023.59;;;3.19;93.75
47556;BME280;33291;46.222;26.460;2023-04-08T19:05:47;97026.91;;;3.21;93.76
47556;BME280;33291;46.222;26.460;2023-04-08T19:08:13;97014.34;;;3.15;93.52
47556;BME280;33291;46.222;26.460;2023-04-08T19:10:39;97021.19;;;3.16;94.24
47556;BME280;33291;46.222;26.460;2023-04-08T19:13:05;97025.56;;;3.14;93.84
47556;BME280;33291;46.222;26.460;2023-04-08T19:15:30;97029.81;;;3.15;93.71
47556;BME280;33291;46.222;26.460;2023-04-08T19:17:56;97013.25;;;3.03;93.88
47556;BME280;33291;46.222;26.460;2023-04-08T19:20:23;97030.13;;;3.09;93.84
47556;BME280;33291;46.222;26.460;2023-04-08T19:22:48;97020.00;;;3.06;93.91
47556;BME280;33291;46.222;26.460;2023-04-08T19:25:15;97032.78;;;3.07;94.40
47556;BME280;33291;46.222;26.460;2023-04-08T19:27:41;97025.28;;;3.02;94.39
47556;BME280;33291;46.222;26.460;2023-04-08T19:30:07;97039.66;;;3.07;94.69
47556;BME280;33291;46.222;26.460;2023-04-08T19:32:34;97031.09;;;3.06;94.80
47556;BME280;33291;46.222;26.460;2023-04-08T19:35:00;97034.75;;;3.02;94.75
47556;BME280;33291;46.222;26.460;2023-04-08T19:37:26;97041.63;;;3.01;94.58
47556;BME280;33291;46.222;26.460;2023-04-08T19:39:52;97044.22;;;3.01;94.46
47556;BME280;33291;46.222;26.460;2023-04-08T19:42:17;97037.47;;;2.99;94.73
47556;BME280;33291;46.222;26.460;2023-04-08T19:44:44;97036.66;;;2.98;95.28
47556;BME280;33291;46.222;26.460;2023-04-08T19:47:11;97042.53;;;3.00;94.98
47556;BME280;33291;46.222;26.460;2023-04-08T19:49:37;97041.63;;;3.01;94.85
47556;BME280;33291;46.222;26.460;2023-04-08T19:52:03;97028.19;;;2.96;94.76
47556;BME280;33291;46.222;26.460;2023-04-08T19:54:28;97031.66;;;2.95;94.67
47556;BME280;33291;46.222;26.460;2023-04-08T19:56:54;97041.78;;;2.98;94.68
47556;BME280;33291;46.222;26.460;2023-04-08T19:59:20;97040.97;;;2.98;94.66
47556;BME280;33291;46.222;26.460;2023-04-08T20:01:48;97042.94;;;2.93;94.67
47556;BME280;33291;46.222;26.460;2023-04-08T20:04:14;97046.19;;;2.96;94.95
47556;BME280;33291;46.222;26.460;2023-04-08T20:06:40;97049.91;;;2.91;95.23
47556;BME280;33291;46.222;26.460;2023-04-08T20:09:05;97043.47;;;2.82;95.10
47556;BME280;33291;46.222;26.460;2023-04-08T20:11:32;97049.25;;;2.87;95.46
47556;BME280;33291;46.222;26.460;2023-04-08T20:13:57;97042.44;;;2.86;95.77
47556;BME280;33291;46.222;26.460;2023-04-08T20:16:23;97045.75;;;2.88;95.75
47556;BME280;33291;46.222;26.460;2023-04-08T20:18:48;97018.44;;;2.68;95.97
47556;BME280;33291;46.222;26.460;2023-04-08T20:21:14;97054.53;;;2.84;96.09
47556;BME280;33291;46.222;26.460;2023-04-08T20:23:40;97057.13;;;2.84;96.22
47556;BME280;33291;46.222;26.460;2023-04-08T20:26:12;97057.03;;;2.86;96.40
47556;BME280;33291;46.222;26.460;2023-04-08T20:28:38;97068.16;;;2.86;96.54
47556;BME280;33291;46.222;26.460;2023-04-08T20:31:03;97062.19;;;2.86;96.30
47556;BME280;33291;46.222;26.460;2023-04-08T20:33:29;97058.91;;;2.82;96.29